sensor_id;sensor_type;location;lat;lon;timestamp;pressure;altitude;pressure_sealevel;temperature;humidity
49377;BME280;35253;34.688;33.040;2022-12-07T00:01:19;101292.78;;;15.34;100.00
49377;BME280;35253;34.688;33.040;2022-12-07T00:03:45;101297.06;;;15.37;100.00
49377;BME280;35253;34.688;33.040;2022-12-07T00:06:12;101299.00;;;15.35;100.00
49377;BME280;35253;34.688;33.040;2022-12-07T00:08:38;101306.41;;;15.31;100.00
49377;BME280;35253;34.688;33.040;2022-12-07T00:11:05;101302.75;;;15.32;100.00
49377;BME280;35253;34.688;33.040;2022-12-07T00:13:31;101303.06;;;15.28;100.00
49377;BME280;35253;34.688;33.040;2022-12-07T00:16:04;101297.03;;;15.12;100.00
49377;BME280;35253;34.688;33.040;2022-12-07T00:18:30;101301.78;;;15.21;100.00
49377;BME280;35253;34.688;33.040;2022-12-07T00:23:50;101297.16;;;15.23;100.00
49377;BME280;35253;34.688;33.040;2022-12-07T00:26:20;101304.47;;;15.33;100.00
49377;BME280;35253;34.688;33.040;2022-12-07T00:28:50;101304.56;;;15.32;100.00
49377;BME280;35253;34.688;33.040;2022-12-07T00:31:16;101299.75;;;15.37;100.00
49377;BME280;35253;34.688;33.040;2022-12-07T00:33:43;101306.31;;;15.33;100.00
49377;BME280;35253;34.688;33.040;2022-12-07T00:36:09;101303.94;;;15.41;100.00
49377;BME280;35253;34.688;33.040;2022-12-07T00:38:36;101309.28;;;15.16;100.00
49377;BME280;35253;34.688;33.040;2022-12-07T00:41:03;101307.41;;;15.30;100.00
49377;BME280;35253;34.688;33.040;2022-12-07T00:43:29;101306.22;;;15.34;100.00
49377;BME280;35253;34.688;33.040;2022-12-07T00:45:55;101302.88;;;15.31;100.00
49377;BME280;35253;34.688;33.040;2022-12-07T00:48:21;101313.06;;;15.26;100.00
49377;BME280;35253;34.688;33.040;2022-12-07T00:50:46;101307.94;;;15.36;100.00
49377;BME280;35253;34.688;33.040;2022-12-07T00:53:12;101312.56;;;15.46;100.00
49377;BME280;35253;34.688;33.040;2022-12-07T00:55:38;101314.09;;;15.50;100.00
49377;BME280;35253;34.688;33.040;2022-12-07T00:58:03;101306.03;;;15.50;100.00
49377;BME280;35253;34.688;33.040;2022-12-07T01:00:29;101317.31;;;15.55;100.00
49377;BME280;35253;34.688;33.040;2022-12-07T01:02:55;101324.78;;;15.25;100.00
49377;BME280;35253;34.688;33.040;2022-12-07T01:05:21;101328.06;;;15.03;100.00
49377;BME280;35253;34.688;33.040;2022-12-07T01:07:46;101334.84;;;15.09;100.00
49377;BME280;35253;34.688;33.040;2022-12-07T01:10:12;101335.53;;;15.25;100.00
49377;BME280;35253;34.688;33.040;2022-12-07T01:12:37;101329.53;;;15.34;100.00
49377;BME280;35253;34.688;33.040;2022-12-07T01:15:03;101333.94;;;15.35;100.00
49377;BME280;35253;34.688;33.040;2022-12-07T01:17:28;101326.75;;;15.48;100.00
49377;BME280;35253;34.688;33.040;2022-12-07T01:19:54;101330.75;;;15.55;100.00
49377;BME280;35253;34.688;33.040;2022-12-07T01:22:19;101319.88;;;15.44;100.00
49377;BME280;35253;34.688;33.040;2022-12-07T01:24:45;101316.44;;;15.42;100.00
49377;BME280;35253;34.688;33.040;2022-12-07T01:27:12;101315.53;;;15.29;100.00
49377;BME280;35253;34.688;33.040;2022-12-07T01:29:37;101311.25;;;15.26;100.00
49377;BME280;35253;34.688;33.040;2022-12-07T01:32:02;101310.81;;;15.20;100.00
49377;BME280;35253;34.688;33.040;2022-12-07T01:34:28;101316.63;;;15.26;100.00
49377;BME280;35253;34.688;33.040;2022-12-07T01:36:53;101313.06;;;15.26;100.00
49377;BME280;35253;34.688;33.040;2022-12-07T01:39:19;101301.78;;;15.21;100.00
49377;BME280;35253;34.688;33.040;2022-12-07T01:41:44;101306.94;;;15.24;100.00
49377;BME280;35253;34.688;33.040;2022-12-07T01:46:35;101295.53;;;15.08;100.00
49377;BME280;35253;34.688;33.040;2022-12-07T01:49:01;101281.34;;;15.18;100.00
49377;BME280;35253;34.688;33.040;2022-12-07T01:51:26;101282.03;;;15.22;100.00
49377;BME280;35253;34.688;33.040;2022-12-07T01:53:53;101277.06;;;15.16;100.00
49377;BME280;35253;34.688;33.040;2022-12-07T01:56:19;101280.91;;;15.12;100.00
49377;BME280;35253;34.688;33.040;2022-12-07T01:58:45;101276.63;;;15.09;100.00
49377;BME280;35253;34.688;33.040;2022-12-07T02:01:11;101284.34;;;15.14;100.00
49377;BME280;35253;34.688;33.040;2022-12-07T02:03:38;101283.19;;;15.18;100.00
49377;BME280;35253;34.688;33.040;2022-12-07T02:06:06;101284.22;;;15.03;100.00
49377;BME280;35253;34.688;33.040;2022-12-07T02:08:33;101292.94;;;15.06;100.00
49377;BME280;35253;34.688;33.040;2022-12-07T02:11:03;101278.97;;;15.14;100.00
49377;BME280;35253;34.688;33.040;2022-12-07T02:13:31;101291.88;;;15.09;100.00
49377;BME280;35253;34.688;33.040;2022-12-07T02:28:49;101287.38;;;15.09;100.00
49377;BME280;35253;34.688;33.040;2022-12-07T02:31:17;101287.69;;;15.05;100.00
49377;BME280;35253;34.688;33.040;2022-12-07T02:33:45;101288.44;;;15.07;100.00
49377;BME280;35253;34.688;33.040;2022-12-07T02:36:34;101288.97;;;15.12;100.00
49377;BME280;35253;34.688;33.040;2022-12-07T02:39:02;101297.44;;;15.06;100.00
49377;BME280;35253;34.688;33.040;2022-12-07T02:41:40;101294.56;;;15.09;100.00
49377;BME280;35253;34.688;33.040;2022-12-07T02:44:09;101298.53;;;15.16;100.00
49377;BME280;35253;34.688;33.040;2022-12-07T02:46:42;101296.72;;;15.16;100.00
49377;BME280;35253;34.688;33.040;2022-12-07T02:49:08;101300.47;;;15.14;100.00
49377;BME280;35253;34.688;33.040;2022-12-07T02:51:38;101298.84;;;15.11;100.00
49377;BME280;35253;34.688;33.040;2022-12-07T02:54:07;101287.81;;;15.16;100.00
49377;BME280;35253;34.688;33.040;2022-12-07T02:56:39;101292.41;;;15.14;100.00
49377;BME280;35253;34.688;33.040;2022-12-07T03:06:48;101289.22;;;15.21;100.00
49377;BME280;35253;34.688;33.040;2022-12-07T03:09:17;101297.03;;;15.12;100.00
49377;BME280;35253;34.688;33.040;2022-12-07T03:11:50;101293.63;;;15.22;100.00
49377;BME280;35253;34.688;33.040;2022-12-07T03:16:59;101298.75;;;15.13;100.00
49377;BME280;35253;34.688;33.040;2022-12-07T03:19:26;101305.09;;;15.12;100.00
49377;BME280;35253;34.688;33.040;2022-12-07T03:22:26;101300.59;;;15.12;100.00
49377;BME280;35253;34.688;33.040;2022-12-07T03:25:04;101311.75;;;15.19;100.00
49377;BME280;35253;34.688;33.040;2022-12-07T03:27:32;101312.75;;;15.18;100.00
49377;BME280;35253;34.688;33.040;2022-12-07T03:30:00;101310.56;;;15.10;100.00
49377;BME280;35253;34.688;33.040;2022-12-07T03:37:51;101307.31;;;15.05;100.00
49377;BME280;35253;34.688;33.040;2022-12-07T03:40:22;101306.06;;;15.11;100.00
49377;BME280;35253;34.688;33.040;2022-12-07T03:42:49;101309.50;;;15.13;100.00
49377;BME280;35253;34.688;33.040;2022-12-07T03:45:15;101305.00;;;15.13;100.00
49377;BME280;35253;34.688;33.040;2022-12-07T03:52:55;101314.44;;;15.19;100.00
49377;BME280;35253;34.688;33.040;2022-12-07T03:55:26;101307.16;;;15.21;100.00
49377;BME280;35253;34.688;33.040;2022-12-07T03:57:54;101310.56;;;15.10;100.00
49377;BME280;35253;34.688;33.040;2022-12-07T04:00:20;101307.47;;;15.16;100.00
49377;BME280;35253;34.688;33.040;2022-12-07T04:02:46;101312.75;;;15.18;100.00
49377;BME280;35253;34.688;33.040;2022-12-07T04:05:12;101307.16;;;15.21;100.00
49377;BME280;35253;34.688;33.040;2022-12-07T04:07:37;101301.34;;;15.27;100.00
49377;BME280;35253;34.688;33.040;2022-12-07T04:10:03;101312.28;;;15.11;100.00
49377;BME280;35253;34.688;33.040;2022-12-07T04:12:29;101318.53;;;15.12;100.00
49377;BME280;35253;34.688;33.040;2022-12-07T04:14:54;101319.00;;;14.92;100.00
49377;BME280;35253;34.688;33.040;2022-12-07T04:17:20;101314.38;;;14.94;100.00
49377;BME280;35253;34.688;33.040;2022-12-07T04:19:46;101322.03;;;15.00;100.00
49377;BME280;35253;34.688;33.040;2022-12-07T04:22:11;101316.75;;;14.98;100.00
49377;BME280;35253;34.688;33.040;2022-12-07T04:24:37;101325.34;;;14.91;100.00
49377;BME280;35253;34.688;33.040;2022-12-07T04:27:02;101322.97;;;14.86;100.00
49377;BME280;35253;34.688;33.040;2022-12-07T04:29:28;101327.50;;;14.98;100.00
49377;BME280;35253;34.688;33.040;2022-12-07T04:31:53;101332.56;;;15.03;100.00
49377;BME280;35253;34.688;33.040;2022-12-07T04:34:19;101318.53;;;15.12;100.00
49377;BME280;35253;34.688;33.040;2022-12-07T04:36:46;101326.66;;;14.98;100.00
49377;BME280;35253;34.688;33.040;2022-12-07T04:39:19;101328.59;;;14.96;100.00
49377;BME280;35253;34.688;33.040;2022-12-07T04:41:45;101323.22;;;14.96;100.00
49377;BME280;35253;34.688;33.040;2022-12-07T04:44:10;101329.38;;;14.83;100.00
49377;BME280;35253;34.688;33.040;2022-12-07T04:46:39;101334.97;;;14.80;100.00
49377;BME280;35253;34.688;33.040;2022-12-07T04:49:04;101334.81;;;14.69;100.00
49377;BME280;35253;34.688;33.040;2022-12-07T04:51:30;101338.16;;;14.73;100.00
49377;BME280;35253;34.688;33.040;2022-12-07T04:53:55;101337.34;;;14.85;100.00
49377;BME280;35253;34.688;33.040;2022-12-07T04:56:21;101335.88;;;14.94;100.00
49377;BME280;35253;34.688;33.040;2022-12-07T04:58:47;101325.53;;;14.87;100.00
49377;BME280;35253;34.688;33.040;2022-12-07T05:01:14;101323.63;;;14.89;100.00
49377;BME280;35253;34.688;33.040;2022-12-07T05:03:39;101327.06;;;14.92;100.00
49377;BME280;35253;34.688;33.040;2022-12-07T05:06:05;101331.38;;;14.94;100.00
49377;BME280;35253;34.688;33.040;2022-12-07T05:08:34;101338.66;;;14.92;100.00
49377;BME280;35253;34.688;33.040;2022-12-07T05:11:00;101337.06;;;15.02;100.00
49377;BME280;35253;34.688;33.040;2022-12-07T05:13:26;101343.19;;;14.92;100.00
49377;BME280;35253;34.688;33.040;2022-12-07T05:15:51;101341.03;;;14.97;100.00
49377;BME280;35253;34.688;33.040;2022-12-07T05:18:16;101341.28;;;15.06;100.00
49377;BME280;35253;34.688;33.040;2022-12-07T05:20:42;101349.16;;;15.09;100.00
49377;BME280;35253;34.688;33.040;2022-12-07T05:23:08;101353.34;;;15.13;100.00
49377;BME280;35253;34.688;33.040;2022-12-07T05:25:34;101345.50;;;15.23;100.00
49377;BME280;35253;34.688;33.040;2022-12-07T05:27:59;101346.69;;;15.19;100.00
49377;BME280;35253;34.688;33.040;2022-12-07T05:30:25;101347.53;;;15.19;100.00
49377;BME280;35253;34.688;33.040;2022-12-07T05:32:51;101354.56;;;15.22;100.00
49377;BME280;35253;34.688;33.040;2022-12-07T05:35:17;101359.81;;;15.36;100.00
49377;BME280;35253;34.688;33.040;2022-12-07T05:37:43;101364.69;;;15.44;100.00
49377;BME280;35253;34.688;33.040;2022-12-07T05:40:09;101348.66;;;15.42;100.00
49377;BME280;35253;34.688;33.040;2022-12-07T05:42:34;101357.50;;;15.44;100.00
49377;BME280;35253;34.688;33.040;2022-12-07T05:45:00;101369.81;;;15.61;100.00
49377;BME280;35253;34.688;33.040;2022-12-07T05:47:26;101368.53;;;15.66;100.00
49377;BME280;35253;34.688;33.040;2022-12-07T05:49:51;101365.63;;;15.82;100.00
49377;BME280;35253;34.688;33.040;2022-12-07T05:52:17;101377.66;;;15.89;100.00
49377;BME280;35253;34.688;33.040;2022-12-07T05:54:42;101384.97;;;16.00;100.00
49377;BME280;35253;34.688;33.040;2022-12-07T05:57:08;101388.22;;;16.05;100.00
49377;BME280;35253;34.688;33.040;2022-12-07T05:59:33;101390.44;;;16.11;100.00
49377;BME280;35253;34.688;33.040;2022-12-07T06:04:28;101385.06;;;16.23;100.00
49377;BME280;35253;34.688;33.040;2022-12-07T06:06:54;101387.41;;;16.28;100.00
49377;BME280;35253;34.688;33.040;2022-12-07T06:09:20;101394.34;;;16.32;100.00
49377;BME280;35253;34.688;33.040;2022-12-07T06:11:46;101386.56;;;16.40;100.00
49377;BME280;35253;34.688;33.040;2022-12-07T06:14:30;101396.53;;;16.51;100.00
49377;BME280;35253;34.688;33.040;2022-12-07T06:16:55;101389.94;;;16.55;100.00
49377;BME280;35253;34.688;33.040;2022-12-07T06:19:21;101393.63;;;16.66;100.00
49377;BME280;35253;34.688;33.040;2022-12-07T06:21:46;101399.56;;;16.72;100.00
49377;BME280;35253;34.688;33.040;2022-12-07T06:24:12;101386.91;;;16.72;100.00
49377;BME280;35253;34.688;33.040;2022-12-07T06:26:38;101393.63;;;16.66;100.00
49377;BME280;35253;34.688;33.040;2022-12-07T06:29:03;101394.91;;;16.74;100.00
49377;BME280;35253;34.688;33.040;2022-12-07T06:31:29;101386.91;;;16.85;100.00
49377;BME280;35253;34.688;33.040;2022-12-07T06:33:58;101395.28;;;16.93;100.00
49377;BME280;35253;34.688;33.040;2022-12-07T06:36:23;101399.31;;;16.98;100.00
49377;BME280;35253;34.688;33.040;2022-12-07T06:38:49;101393.59;;;17.03;100.00
49377;BME280;35253;34.688;33.040;2022-12-07T06:41:14;101399.06;;;17.14;100.00
49377;BME280;35253;34.688;33.040;2022-12-07T06:43:49;101397.31;;;17.13;100.00
49377;BME280;35253;34.688;33.040;2022-12-07T06:46:15;101399.44;;;17.21;100.00
49377;BME280;35253;34.688;33.040;2022-12-07T06:48:41;101402.31;;;17.30;100.00
49377;BME280;35253;34.688;33.040;2022-12-07T06:51:07;101405.41;;;17.37;100.00
49377;BME280;35253;34.688;33.040;2022-12-07T06:53:32;101402.13;;;17.44;100.00
49377;BME280;35253;34.688;33.040;2022-12-07T06:55:58;101401.41;;;17.53;100.00
49377;BME280;35253;34.688;33.040;2022-12-07T06:58:23;101408.94;;;17.61;100.00
49377;BME280;35253;34.688;33.040;2022-12-07T07:00:49;101415.22;;;17.62;100.00
49377;BME280;35253;34.688;33.040;2022-12-07T07:03:15;101411.28;;;17.66;100.00
49377;BME280;35253;34.688;33.040;2022-12-07T07:05:41;101408.84;;;17.74;100.00
49377;BME280;35253;34.688;33.040;2022-12-07T07:08:06;101412.41;;;17.74;100.00
49377;BME280;35253;34.688;33.040;2022-12-07T07:10:32;101420.25;;;17.77;100.00
49377;BME280;35253;34.688;33.040;2022-12-07T07:12:57;101422.59;;;17.82;100.00
49377;BME280;35253;34.688;33.040;2022-12-07T07:15:23;101417.00;;;17.85;100.00
49377;BME280;35253;34.688;33.040;2022-12-07T07:17:48;101415.63;;;17.90;100.00
49377;BME280;35253;34.688;33.040;2022-12-07T07:20:13;101420.91;;;17.92;100.00
49377;BME280;35253;34.688;33.040;2022-12-07T07:22:39;101415.56;;;18.03;100.00
49377;BME280;35253;34.688;33.040;2022-12-07T07:25:04;101413.13;;;18.11;100.00
49377;BME280;35253;34.688;33.040;2022-12-07T07:27:30;101413.00;;;18.24;100.00
49377;BME280;35253;34.688;33.040;2022-12-07T07:29:56;101412.00;;;18.36;100.00
49377;BME280;35253;34.688;33.040;2022-12-07T07:32:21;101406.47;;;18.48;100.00
49377;BME280;35253;34.688;33.040;2022-12-07T07:34:47;101409.22;;;18.60;100.00
49377;BME280;35253;34.688;33.040;2022-12-07T07:37:13;101412.16;;;18.68;100.00
49377;BME280;35253;34.688;33.040;2022-12-07T07:39:39;101409.94;;;18.73;100.00
49377;BME280;35253;34.688;33.040;2022-12-07T07:42:04;101413.13;;;18.78;100.00
49377;BME280;35253;34.688;33.040;2022-12-07T07:44:30;101423.41;;;18.84;100.00
49377;BME280;35253;34.688;33.040;2022-12-07T07:46:55;101416.94;;;18.86;100.00
49377;BME280;35253;34.688;33.040;2022-12-07T07:49:21;101422.06;;;18.89;100.00
49377;BME280;35253;34.688;33.040;2022-12-07T07:51:46;101407.91;;;18.97;100.00
49377;BME280;35253;34.688;33.040;2022-12-07T07:54:11;101406.94;;;18.98;100.00
49377;BME280;35253;34.688;33.040;2022-12-07T07:56:37;101409.16;;;19.04;100.00
49377;BME280;35253;34.688;33.040;2022-12-07T07:59:02;101412.94;;;19.13;100.00
49377;BME280;35253;34.688;33.040;2022-12-07T08:01:28;101408.13;;;19.16;100.00
49377;BME280;35253;34.688;33.040;2022-12-07T08:03:53;101407.97;;;19.18;100.00
49377;BME280;35253;34.688;33.040;2022-12-07T08:06:19;101408.13;;;19.16;100.00
49377;BME280;35253;34.688;33.040;2022-12-07T08:08:45;101412.13;;;19.22;100.00
49377;BME280;35253;34.688;33.040;2022-12-07T08:11:10;101412.75;;;19.25;100.00
49377;BME280;35253;34.688;33.040;2022-12-07T08:13:39;101409.84;;;19.17;100.00
49377;BME280;35253;34.688;33.040;2022-12-07T08:16:05;101404.44;;;19.17;100.00
49377;BME280;35253;34.688;33.040;2022-12-07T08:18:31;101403.63;;;19.26;100.00
49377;BME280;35253;34.688;33.040;2022-12-07T08:21:00;101398.72;;;19.31;100.00
49377;BME280;35253;34.688;33.040;2022-12-07T08:23:28;101399.44;;;19.33;100.00
49377;BME280;35253;34.688;33.040;2022-12-07T08:25:54;101398.66;;;19.43;100.00
49377;BME280;35253;34.688;33.040;2022-12-07T08:28:19;101399.19;;;19.48;100.00
49377;BME280;35253;34.688;33.040;2022-12-07T08:30:45;101394.38;;;19.51;100.00
49377;BME280;35253;34.688;33.040;2022-12-07T08:33:10;101385.00;;;19.55;100.00
49377;BME280;35253;34.688;33.040;2022-12-07T08:35:36;101382.88;;;19.59;100.00
49377;BME280;35253;34.688;33.040;2022-12-07T08:38:01;101379.47;;;19.57;100.00
49377;BME280;35253;34.688;33.040;2022-12-07T08:40:27;101383.38;;;19.53;100.00
49377;BME280;35253;34.688;33.040;2022-12-07T08:42:53;101381.22;;;19.35;100.00
49377;BME280;35253;34.688;33.040;2022-12-07T08:45:18;101380.63;;;19.43;100.00
49377;BME280;35253;34.688;33.040;2022-12-07T08:47:50;101375.53;;;19.50;100.00
49377;BME280;35253;34.688;33.040;2022-12-07T08:50:18;101372.34;;;19.56;100.00
49377;BME280;35253;34.688;33.040;2022-12-07T08:52:44;101374.06;;;19.57;100.00
49377;BME280;35253;34.688;33.040;2022-12-07T08:55:12;101367.38;;;19.82;100.00
49377;BME280;35253;34.688;33.040;2022-12-07T08:57:38;101369.47;;;19.57;100.00
49377;BME280;35253;34.688;33.040;2022-12-07T09:00:04;101369.41;;;19.89;100.00
49377;BME280;35253;34.688;33.040;2022-12-07T09:02:31;101366.34;;;20.03;100.00
49377;BME280;35253;34.688;33.040;2022-12-07T09:04:56;101355.81;;;20.00;100.00
49377;BME280;35253;34.688;33.040;2022-12-07T09:07:22;101363.75;;;20.22;100.00
49377;BME280;35253;34.688;33.040;2022-12-07T09:09:47;101353.00;;;20.42;100.00
49377;BME280;35253;34.688;33.040;2022-12-07T09:12:14;101348.06;;;20.56;100.00
49377;BME280;35253;34.688;33.040;2022-12-07T09:14:39;101348.91;;;20.47;100.00
49377;BME280;35253;34.688;33.040;2022-12-07T09:17:08;101354.06;;;20.60;100.00
49377;BME280;35253;34.688;33.040;2022-12-07T09:19:34;101345.50;;;20.64;100.00
49377;BME280;35253;34.688;33.040;2022-12-07T09:22:00;101343.50;;;20.57;100.00
49377;BME280;35253;34.688;33.040;2022-12-07T09:24:26;101341.06;;;20.54;100.00
49377;BME280;35253;34.688;33.040;2022-12-07T09:26:51;101338.34;;;20.54;100.00
49377;BME280;35253;34.688;33.040;2022-12-07T09:29:17;101340.34;;;20.52;100.00
49377;BME280;35253;34.688;33.040;2022-12-07T09:31:42;101339.16;;;20.45;100.00
49377;BME280;35253;34.688;33.040;2022-12-07T09:34:07;101337.75;;;20.41;100.00
49377;BME280;35253;34.688;33.040;2022-12-07T09:36:33;101333.50;;;20.48;100.00
49377;BME280;35253;34.688;33.040;2022-12-07T09:38:58;101334.66;;;20.55;100.00
49377;BME280;35253;34.688;33.040;2022-12-07T09:41:24;101333.69;;;20.25;100.00
49377;BME280;35253;34.688;33.040;2022-12-07T09:43:51;101332.31;;;20.41;100.00
49377;BME280;35253;34.688;33.040;2022-12-07T09:46:17;101330.38;;;20.52;100.00
49377;BME280;35253;34.688;33.040;2022-12-07T09:48:44;101329.81;;;20.58;100.00
49377;BME280;35253;34.688;33.040;2022-12-07T09:51:20;101326.88;;;20.71;100.00
49377;BME280;35253;34.688;33.040;2022-12-07T09:53:46;101330.97;;;20.65;100.00
49377;BME280;35253;34.688;33.040;2022-12-07T09:56:16;101327.19;;;20.38;100.00
49377;BME280;35253;34.688;33.040;2022-12-07T09:58:43;101315.25;;;20.59;100.00
49377;BME280;35253;34.688;33.040;2022-12-07T10:01:13;101318.91;;;20.30;100.00
49377;BME280;35253;34.688;33.040;2022-12-07T10:03:44;101322.28;;;20.22;100.00
49377;BME280;35253;34.688;33.040;2022-12-07T10:06:13;101316.34;;;20.38;100.00
49377;BME280;35253;34.688;33.040;2022-12-07T10:08:39;101310.00;;;20.67;100.00
49377;BME280;35253;34.688;33.040;2022-12-07T10:11:06;101308.44;;;20.65;100.00
49377;BME280;35253;34.688;33.040;2022-12-07T10:13:39;101309.19;;;20.86;100.00
49377;BME280;35253;34.688;33.040;2022-12-07T10:16:05;101300.31;;;20.94;100.00
49377;BME280;35253;34.688;33.040;2022-12-07T10:18:32;101301.06;;;21.05;100.00
49377;BME280;35253;34.688;33.040;2022-12-07T10:23:34;101305.94;;;21.31;100.00
49377;BME280;35253;34.688;33.040;2022-12-07T10:26:17;101300.75;;;21.37;100.00
49377;BME280;35253;34.688;33.040;2022-12-07T10:28:44;101305.91;;;21.40;100.00
49377;BME280;35253;34.688;33.040;2022-12-07T10:31:20;101298.34;;;21.44;100.00
49377;BME280;35253;34.688;33.040;2022-12-07T10:33:54;101301.06;;;21.44;100.00
49377;BME280;35253;34.688;33.040;2022-12-07T10:36:27;101301.47;;;21.49;100.00
49377;BME280;35253;34.688;33.040;2022-12-07T10:39:26;101298.78;;;21.30;100.00
49377;BME280;35253;34.688;33.040;2022-12-07T10:41:57;101301.38;;;21.22;100.00
49377;BME280;35253;34.688;33.040;2022-12-07T10:44:26;101296.50;;;21.16;100.00
49377;BME280;35253;34.688;33.040;2022-12-07T10:47:11;101295.06;;;21.21;100.00
49377;BME280;35253;34.688;33.040;2022-12-07T10:49:45;101287.56;;;21.71;100.00
49377;BME280;35253;34.688;33.040;2022-12-07T10:52:27;101284.63;;;22.01;100.00
49377;BME280;35253;34.688;33.040;2022-12-07T10:57:47;101282.91;;;21.91;100.00
49377;BME280;35253;34.688;33.040;2022-12-07T11:00:24;101277.38;;;21.83;100.00
49377;BME280;35253;34.688;33.040;2022-12-07T11:18:28;101264.16;;;22.52;100.00
49377;BME280;35253;34.688;33.040;2022-12-07T11:21:13;101257.50;;;22.64;100.00
49377;BME280;35253;34.688;33.040;2022-12-07T11:37:21;101262.09;;;22.46;100.00
49377;BME280;35253;34.688;33.040;2022-12-07T11:39:51;101256.41;;;22.57;100.00
49377;BME280;35253;34.688;33.040;2022-12-07T11:42:21;101255.53;;;23.02;100.00
49377;BME280;35253;34.688;33.040;2022-12-07T11:44:52;101259.56;;;22.98;100.00
49377;BME280;35253;34.688;33.040;2022-12-07T11:55:45;101266.41;;;22.84;100.00
49377;BME280;35253;34.688;33.040;2022-12-07T11:58:04;101269.03;;;22.76;100.00
49377;BME280;35253;34.688;33.040;2022-12-07T12:00:37;101265.94;;;22.16;100.00
49377;BME280;35253;34.688;33.040;2022-12-07T12:03:09;101259.66;;;22.61;100.00
49377;BME280;35253;34.688;33.040;2022-12-07T12:05:36;101269.25;;;22.82;100.00
49377;BME280;35253;34.688;33.040;2022-12-07T12:21:12;101252.91;;;21.46;100.00
49377;BME280;35253;34.688;33.040;2022-12-07T12:23:41;101253.41;;;22.15;100.00
49377;BME280;35253;34.688;33.040;2022-12-07T12:26:14;101259.56;;;22.35;100.00
49377;BME280;35253;34.688;33.040;2022-12-07T12:31:11;101263.75;;;22.02;100.00
49377;BME280;35253;34.688;33.040;2022-12-07T12:33:38;101255.66;;;22.20;100.00
49377;BME280;35253;34.688;33.040;2022-12-07T12:44:01;101250.53;;;20.66;100.00
49377;BME280;35253;34.688;33.040;2022-12-07T12:48:57;101254.22;;;20.55;100.00
49377;BME280;35253;34.688;33.040;2022-12-07T12:51:40;101253.81;;;20.69;100.00
49377;BME280;35253;34.688;33.040;2022-12-07T12:54:10;101247.13;;;20.74;100.00
49377;BME280;35253;34.688;33.040;2022-12-07T12:59:32;101247.69;;;20.67;100.00
49377;BME280;35253;34.688;33.040;2022-12-07T13:04:36;101245.97;;;20.76;100.00
49377;BME280;35253;34.688;33.040;2022-12-07T13:07:02;101252.25;;;20.96;100.00
49377;BME280;35253;34.688;33.040;2022-12-07T13:09:29;101251.06;;;21.46;100.00
49377;BME280;35253;34.688;33.040;2022-12-07T13:12:03;101253.38;;;21.03;100.00
49377;BME280;35253;34.688;33.040;2022-12-07T13:14:41;101244.97;;;20.77;100.00
49377;BME280;35253;34.688;33.040;2022-12-07T13:17:10;101247.38;;;20.51;100.00
49377;BME280;35253;34.688;33.040;2022-12-07T13:22:53;101255.69;;;20.19;100.00
49377;BME280;35253;34.688;33.040;2022-12-07T13:25:03;101248.28;;;20.71;100.00
49377;BME280;35253;34.688;33.040;2022-12-07T13:27:42;101240.13;;;22.92;100.00
49377;BME280;35253;34.688;33.040;2022-12-07T13:30:18;101247.44;;;23.53;100.00
49377;BME280;35253;34.688;33.040;2022-12-07T13:32:43;101249.19;;;24.22;100.00
49377;BME280;35253;34.688;33.040;2022-12-07T13:37:57;101257.66;;;21.34;100.00
49377;BME280;35253;34.688;33.040;2022-12-07T13:40:23;101255.81;;;20.96;100.00
49377;BME280;35253;34.688;33.040;2022-12-07T13:42:56;101256.75;;;21.99;100.00
49377;BME280;35253;34.688;33.040;2022-12-07T13:45:24;101268.19;;;23.11;100.00
49377;BME280;35253;34.688;33.040;2022-12-07T13:48:09;101258.66;;;21.89;100.00
49377;BME280;35253;34.688;33.040;2022-12-07T13:50:36;101262.50;;;21.11;100.00
49377;BME280;35253;34.688;33.040;2022-12-07T13:53:07;101258.50;;;20.48;100.00
49377;BME280;35253;34.688;33.040;2022-12-07T13:55:37;101255.00;;;20.17;100.00
49377;BME280;35253;34.688;33.040;2022-12-07T13:58:09;101258.69;;;20.16;100.00
49377;BME280;35253;34.688;33.040;2022-12-07T14:00:34;101257.34;;;20.01;100.00
49377;BME280;35253;34.688;33.040;2022-12-07T14:03:01;101250.72;;;20.24;100.00
49377;BME280;35253;34.688;33.040;2022-12-07T14:05:31;101259.41;;;21.16;100.00
49377;BME280;35253;34.688;33.040;2022-12-07T14:08:01;101252.09;;;21.26;100.00
49377;BME280;35253;34.688;33.040;2022-12-07T14:10:34;101249.38;;;20.59;100.00
49377;BME280;35253;34.688;33.040;2022-12-07T14:13:01;101259.84;;;20.23;100.00
49377;BME280;35253;34.688;33.040;2022-12-07T14:15:28;101257.09;;;19.74;100.00
49377;BME280;35253;34.688;33.040;2022-12-07T14:17:55;101253.84;;;19.50;100.00
49377;BME280;35253;34.688;33.040;2022-12-07T14:20:31;101250.03;;;19.62;100.00
49377;BME280;35253;34.688;33.040;2022-12-07T14:22:58;101251.13;;;19.80;100.00
49377;BME280;35253;34.688;33.040;2022-12-07T14:25:24;101241.34;;;19.58;100.00
49377;BME280;35253;34.688;33.040;2022-12-07T14:27:58;101251.91;;;19.41;100.00
49377;BME280;35253;34.688;33.040;2022-12-07T14:30:31;101248.97;;;19.44;100.00
49377;BME280;35253;34.688;33.040;2022-12-07T14:32:58;101249.78;;;19.23;100.00
49377;BME280;35253;34.688;33.040;2022-12-07T14:35:25;101251.06;;;19.19;100.00